Time;durP1;ratioP1;P1;durP2;ratioP2;P2;SDS_P1;SDS_P2;PMS_P1;PMS_P2;Temp;Humidity;BMP_temperature;BMP_pressure;BME280_temperature;BME280_humidity;BME280_pressure;Samples;Min_cycle;Max_cycle;Signal;HPM_P1;HPM_P2
2022/02/26 00:01:24;;;;;;;;;8.00;6.50;;;;;;;;5076955;28;45439;-70
2022/02/26 00:03:50;;;;;;;;;8.00;7.00;;;;;;;;5076178;27;45507;-70
2022/02/26 00:06:15;;;;;;;;;8.00;8.00;;;;;;;;5075497;28;45466;-70
2022/02/26 00:08:40;;;;;;;;;9.50;7.00;;;;;;;;5075578;28;46191;-70
2022/02/26 00:11:05;;;;;;;;;7.75;6.75;;;;;;;;5074917;27;45481;-70
2022/02/26 00:13:31;;;;;;;;;9.25;6.50;;;;;;;;5080455;27;45344;-70
2022/02/26 00:15:56;;;;;;;;;9.00;6.25;;;;;;;;5075766;27;45799;-70
2022/02/26 00:18:21;;;;;;;;;9.00;7.00;;;;;;;;5075817;27;46269;-71
2022/02/26 00:20:46;;;;;;;;;6.00;6.00;;;;;;;;5075800;28;45336;-70
2022/02/26 00:23:12;;;;;;;;;8.00;7.00;;;;;;;;5075659;28;45498;-70
2022/02/26 00:25:37;;;;;;;;;7.00;7.00;;;;;;;;5089066;27;45268;-70
2022/02/26 00:28:02;;;;;;;;;8.00;7.00;;;;;;;;5076584;27;46218;-70
2022/02/26 00:30:27;;;;;;;;;11.25;6.75;;;;;;;;5075138;28;45561;-70
2022/02/26 00:32:54;;;;;;;;;8.50;6.75;;;;;;;;5072831;28;45459;-70
2022/02/26 00:35:19;;;;;;;;;7.00;7.00;;;;;;;;5059221;28;45517;-70
2022/02/26 00:37:44;;;;;;;;;7.25;6.25;;;;;;;;5073029;28;46376;-71
2022/02/26 00:40:10;;;;;;;;;8.00;8.00;;;;;;;;5076237;27;45398;-70
2022/02/26 00:42:35;;;;;;;;;8.50;7.25;;;;;;;;5075513;28;45271;-71
2022/02/26 00:45:01;;;;;;;;;13.50;9.00;;;;;;;;5074610;28;45434;-70
2022/02/26 00:47:26;;;;;;;;;9.25;7.00;;;;;;;;5074555;27;46839;-71
2022/02/26 00:49:51;;;;;;;;;10.25;7.25;;;;;;;;5075222;27;45395;-71
2022/02/26 00:52:30;;;;;;;;;7.75;7.25;;;;;;;;5076364;28;45336;-71
2022/02/26 00:54:56;;;;;;;;;6.00;6.00;;;;;;;;5086327;27;45593;-70
2022/02/26 00:57:21;;;;;;;;;6.00;6.00;;;;;;;;5080078;27;46062;-70
2022/02/26 00:59:47;;;;;;;;;7.00;6.50;;;;;;;;5075129;28;45613;-70
2022/02/26 01:02:12;;;;;;;;;10.00;9.00;;;;;;;;5075942;27;45785;-71
2022/02/26 01:04:38;;;;;;;;;7.75;5.25;;;;;;;;5074983;28;45320;-70
2022/02/26 01:07:04;;;;;;;;;8.75;7.75;;;;;;;;5075947;27;48042;-71
2022/02/26 01:09:29;;;;;;;;;7.50;6.50;;;;;;;;5074520;27;45346;-70
2022/02/26 01:11:54;;;;;;;;;10.75;8.00;;;;;;;;5074677;28;45265;-70
2022/02/26 01:14:20;;;;;;;;;11.75;8.25;;;;;;;;5074471;27;45534;-71
2022/02/26 01:16:45;;;;;;;;;8.25;7.00;;;;;;;;5040220;28;47132;-70
2022/02/26 01:19:10;;;;;;;;;8.50;8.50;;;;;;;;5076098;28;45292;-70
2022/02/26 01:21:36;;;;;;;;;8.50;8.50;;;;;;;;5075159;28;45330;-70
2022/02/26 01:24:01;;;;;;;;;9.50;8.25;;;;;;;;5075424;27;45426;-70
2022/02/26 01:26:26;;;;;;;;;11.50;10.00;;;;;;;;5075208;27;45603;-71
2022/02/26 01:28:52;;;;;;;;;9.00;8.00;;;;;;;;5074518;27;45315;-70
2022/02/26 01:31:17;;;;;;;;;9.00;7.50;;;;;;;;5075858;28;45308;-70
2022/02/26 01:33:42;;;;;;;;;11.75;8.75;;;;;;;;5076723;27;45419;-70
2022/02/26 01:36:08;;;;;;;;;9.25;8.25;;;;;;;;5069493;28;46368;-70
2022/02/26 01:38:33;;;;;;;;;10.50;9.00;;;;;;;;5062880;27;45232;-70
2022/02/26 01:40:59;;;;;;;;;8.75;8.75;;;;;;;;5079448;27;45444;-70
2022/02/26 01:43:24;;;;;;;;;10.00;7.00;;;;;;;;5075554;28;45481;-70
2022/02/26 01:45:50;;;;;;;;;9.50;9.50;;;;;;;;5082443;27;45466;-70
2022/02/26 01:48:15;;;;;;;;;7.00;7.00;;;;;;;;5074342;28;45351;-70
2022/02/26 01:50:41;;;;;;;;;9.00;8.25;;;;;;;;5073914;28;45504;-70
2022/02/26 01:53:07;;;;;;;;;9.00;9.00;;;;;;;;5074330;28;45255;-70
2022/02/26 01:55:32;;;;;;;;;6.75;6.75;;;;;;;;5058334;28;45461;-69
2022/02/26 01:57:58;;;;;;;;;10.75;8.50;;;;;;;;5074177;28;45438;-70
2022/02/26 02:00:23;;;;;;;;;8.50;8.50;;;;;;;;5074486;28;45443;-70
2022/02/26 02:02:49;;;;;;;;;7.75;7.50;;;;;;;;5076759;27;45504;-70
2022/02/26 02:05:14;;;;;;;;;10.00;10.00;;;;;;;;5073933;27;46096;-70
2022/02/26 02:07:40;;;;;;;;;10.75;9.25;;;;;;;;5073667;28;45301;-71
2022/02/26 02:10:06;;;;;;;;;9.00;7.75;;;;;;;;5070643;28;45300;-70
2022/02/26 02:12:31;;;;;;;;;9.50;9.50;;;;;;;;5073510;27;45379;-70
2022/02/26 02:14:57;;;;;;;;;10.00;8.75;;;;;;;;5074159;27;46357;-70
2022/02/26 02:17:23;;;;;;;;;9.00;8.00;;;;;;;;5074090;27;45565;-71
2022/02/26 02:19:48;;;;;;;;;9.50;9.50;;;;;;;;5074013;28;45960;-71
2022/02/26 02:22:16;;;;;;;;;10.25;8.50;;;;;;;;5074399;28;45384;-70
2022/02/26 02:24:41;;;;;;;;;8.25;8.00;;;;;;;;5074803;27;45411;-70
2022/02/26 02:27:06;;;;;;;;;14.50;10.75;;;;;;;;5080384;27;45533;-71
2022/02/26 02:29:31;;;;;;;;;8.75;8.75;;;;;;;;5073895;28;45466;-70
2022/02/26 02:31:57;;;;;;;;;11.00;9.00;;;;;;;;5073881;27;45421;-70
2022/02/26 02:34:22;;;;;;;;;10.25;10.00;;;;;;;;5058644;28;45560;-71
2022/02/26 02:36:48;;;;;;;;;11.00;9.00;;;;;;;;5072723;28;45614;-70
2022/02/26 02:39:14;;;;;;;;;8.75;7.50;;;;;;;;5075855;28;45378;-71
2022/02/26 02:41:39;;;;;;;;;12.75;8.75;;;;;;;;5066435;28;45281;-70
2022/02/26 02:44:06;;;;;;;;;9.75;8.25;;;;;;;;5081078;27;45919;-70
2022/02/26 02:46:31;;;;;;;;;10.50;9.00;;;;;;;;5077436;28;45418;-70
2022/02/26 02:48:56;;;;;;;;;10.50;10.00;;;;;;;;5087787;27;45472;-70
2022/02/26 02:51:21;;;;;;;;;8.75;8.75;;;;;;;;5081266;27;45522;-70
2022/02/26 02:53:47;;;;;;;;;11.00;9.00;;;;;;;;5077240;27;45272;-71
2022/02/26 02:56:12;;;;;;;;;10.50;8.00;;;;;;;;5077559;28;45392;-70
2022/02/26 02:58:37;;;;;;;;;9.00;9.00;;;;;;;;5077617;28;45459;-70
2022/02/26 03:01:03;;;;;;;;;12.00;9.00;;;;;;;;5078005;27;45490;-70
2022/02/26 03:03:28;;;;;;;;;9.75;8.25;;;;;;;;5074724;28;45590;-70
2022/02/26 03:05:54;;;;;;;;;11.00;10.75;;;;;;;;5076232;28;45347;-70
2022/02/26 03:08:23;;;;;;;;;10.25;10.25;;;;;;;;5077072;27;47985;-70
2022/02/26 03:10:48;;;;;;;;;10.75;10.75;;;;;;;;5076253;27;45488;-71
2022/02/26 03:13:14;;;;;;;;;12.00;9.25;;;;;;;;5083110;27;45593;-70
2022/02/26 03:15:39;;;;;;;;;9.00;8.50;;;;;;;;5061029;27;45515;-70
2022/02/26 03:18:04;;;;;;;;;9.00;8.50;;;;;;;;5076584;28;45332;-70
2022/02/26 03:20:30;;;;;;;;;12.75;12.00;;;;;;;;5057872;28;45359;-70
2022/02/26 03:22:55;;;;;;;;;10.00;10.00;;;;;;;;5076566;28;46588;-70
2022/02/26 03:25:23;;;;;;;;;11.25;10.00;;;;;;;;5077734;27;45535;-70
2022/02/26 03:27:48;;;;;;;;;12.50;10.25;;;;;;;;5076558;27;46095;-70
2022/02/26 03:30:13;;;;;;;;;11.00;11.00;;;;;;;;5076572;27;45455;-70
2022/02/26 03:32:39;;;;;;;;;9.50;8.00;;;;;;;;5076399;27;45595;-70
2022/02/26 03:35:04;;;;;;;;;6.75;6.75;;;;;;;;5057998;28;45812;-70
2022/02/26 03:37:31;;;;;;;;;10.50;8.25;;;;;;;;5077574;27;45414;-70
2022/02/26 03:39:56;;;;;;;;;12.75;11.00;;;;;;;;5076419;28;45421;-70
2022/02/26 03:42:21;;;;;;;;;10.75;9.50;;;;;;;;5081971;27;45415;-70
2022/02/26 03:44:50;;;;;;;;;12.50;10.25;;;;;;;;5086027;27;46005;-70
2022/02/26 03:47:16;;;;;;;;;12.75;12.00;;;;;;;;5076016;28;45474;-70
2022/02/26 03:49:41;;;;;;;;;11.25;9.75;;;;;;;;5075802;27;45376;-70
2022/02/26 03:52:07;;;;;;;;;13.25;10.25;;;;;;;;5092687;27;47197;-70
2022/02/26 03:54:32;;;;;;;;;10.50;8.50;;;;;;;;5076151;28;45394;-70
2022/02/26 03:56:57;;;;;;;;;11.25;8.75;;;;;;;;5076209;28;45458;-70
2022/02/26 03:59:22;;;;;;;;;9.25;8.75;;;;;;;;5075361;27;45464;-70
2022/02/26 04:01:47;;;;;;;;;9.75;9.25;;;;;;;;5075780;28;46621;-70
2022/02/26 04:04:13;;;;;;;;;11.00;11.00;;;;;;;;5058371;28;45348;-70
2022/02/26 04:06:38;;;;;;;;;14.00;10.50;;;;;;;;5057358;28;45319;-70
2022/02/26 04:09:04;;;;;;;;;15.25;10.50;;;;;;;;5075952;28;45422;-70
2022/02/26 04:11:29;;;;;;;;;15.75;11.00;;;;;;;;5075758;28;45342;-70
2022/02/26 04:13:54;;;;;;;;;10.50;9.50;;;;;;;;5083553;27;48158;-70
2022/02/26 04:16:20;;;;;;;;;12.75;9.50;;;;;;;;5077132;28;45525;-70
2022/02/26 04:18:45;;;;;;;;;9.00;9.00;;;;;;;;5075690;28;45468;-70
2022/02/26 04:21:10;;;;;;;;;14.00;12.00;;;;;;;;5075526;28;45545;-70
2022/02/26 04:23:35;;;;;;;;;11.50;9.25;;;;;;;;5075803;28;45712;-70
2022/02/26 04:26:00;;;;;;;;;12.25;10.00;;;;;;;;5075507;28;45590;-70
2022/02/26 04:28:26;;;;;;;;;13.00;10.75;;;;;;;;5057068;28;45444;-70
2022/02/26 04:30:51;;;;;;;;;11.25;10.50;;;;;;;;5077169;27;45462;-70
2022/02/26 04:33:16;;;;;;;;;13.50;9.00;;;;;;;;5080388;27;45287;-70
2022/02/26 04:35:42;;;;;;;;;15.50;12.25;;;;;;;;5075195;27;45407;-70
2022/02/26 04:38:07;;;;;;;;;13.25;12.75;;;;;;;;5075853;27;45537;-70
2022/02/26 04:40:32;;;;;;;;;11.75;9.75;;;;;;;;5075745;28;46471;-70
2022/02/26 04:42:57;;;;;;;;;16.25;12.00;;;;;;;;5075914;28;45270;-70
2022/02/26 04:45:24;;;;;;;;;14.50;10.75;;;;;;;;5075176;27;45450;-70
2022/02/26 04:47:50;;;;;;;;;11.00;10.00;;;;;;;;5074651;28;45462;-70
2022/02/26 04:50:15;;;;;;;;;9.50;9.50;;;;;;;;5074949;27;46323;-70
2022/02/26 04:52:41;;;;;;;;;13.00;10.75;;;;;;;;5057198;28;45503;-70
2022/02/26 04:55:07;;;;;;;;;16.25;11.00;;;;;;;;5075979;27;45289;-70
2022/02/26 04:57:32;;;;;;;;;13.50;9.25;;;;;;;;5057349;28;45570;-70
2022/02/26 04:59:57;;;;;;;;;12.00;9.75;;;;;;;;5074507;28;45783;-70
2022/02/26 05:02:23;;;;;;;;;9.50;9.00;;;;;;;;5075143;27;45400;-70
2022/02/26 05:04:48;;;;;;;;;13.25;12.50;;;;;;;;5075880;28;45371;-70
2022/02/26 05:07:15;;;;;;;;;11.25;10.25;;;;;;;;5076212;28;45494;-70
2022/02/26 05:09:41;;;;;;;;;16.50;11.75;;;;;;;;5074241;28;46400;-70
2022/02/26 05:12:06;;;;;;;;;15.75;11.75;;;;;;;;5074768;27;45480;-70
2022/02/26 05:14:31;;;;;;;;;14.25;10.75;;;;;;;;5074808;28;45513;-70
2022/02/26 05:16:56;;;;;;;;;10.50;8.75;;;;;;;;5059565;27;45356;-70
2022/02/26 05:19:22;;;;;;;;;10.25;10.00;;;;;;;;5075675;28;45395;-70
2022/02/26 05:21:47;;;;;;;;;12.50;9.75;;;;;;;;5074487;28;45498;-70
2022/02/26 05:24:12;;;;;;;;;11.25;11.25;;;;;;;;5074617;28;45335;-70
2022/02/26 05:26:37;;;;;;;;;12.00;11.00;;;;;;;;5074393;28;45525;-70
2022/02/26 05:29:03;;;;;;;;;11.25;11.25;;;;;;;;5074608;28;45413;-70
2022/02/26 05:31:28;;;;;;;;;12.25;9.25;;;;;;;;5075609;28;45368;-70
2022/02/26 05:33:53;;;;;;;;;12.75;11.50;;;;;;;;5073965;27;45478;-69
2022/02/26 05:36:18;;;;;;;;;9.75;8.75;;;;;;;;5074485;28;45416;-70
2022/02/26 05:38:43;;;;;;;;;13.25;11.00;;;;;;;;5075219;27;46038;-69
2022/02/26 05:41:09;;;;;;;;;13.00;10.25;;;;;;;;5074360;27;45502;-70
2022/02/26 05:43:34;;;;;;;;;10.50;9.75;;;;;;;;5074858;28;45399;-70
2022/02/26 05:46:00;;;;;;;;;12.50;11.00;;;;;;;;5074982;28;45376;-70
2022/02/26 05:48:25;;;;;;;;;11.25;10.50;;;;;;;;5074719;28;45395;-70
2022/02/26 05:50:50;;;;;;;;;13.00;11.00;;;;;;;;5074064;28;45271;-70
2022/02/26 05:53:15;;;;;;;;;14.00;11.50;;;;;;;;5074635;27;45426;-69
2022/02/26 05:55:40;;;;;;;;;8.50;8.50;;;;;;;;5074632;28;45382;-70
2022/02/26 05:58:06;;;;;;;;;15.50;11.00;;;;;;;;5074937;27;46234;-70
2022/02/26 06:00:31;;;;;;;;;10.25;10.25;;;;;;;;5073733;27;45723;-69
2022/02/26 06:02:56;;;;;;;;;13.25;11.75;;;;;;;;5074245;28;45487;-70
2022/02/26 06:05:21;;;;;;;;;12.75;11.75;;;;;;;;5074322;27;45426;-70
2022/02/26 06:07:47;;;;;;;;;2.25;1.00;;;;;;;;5073845;27;46498;-70
2022/02/26 06:10:12;;;;;;;;;12.00;12.00;;;;;;;;5075089;28;45552;-70
2022/02/26 06:12:37;;;;;;;;;12.50;10.50;;;;;;;;5074136;27;45426;-70
2022/02/26 06:15:03;;;;;;;;;10.75;10.75;;;;;;;;5077152;28;45398;-70
2022/02/26 06:17:28;;;;;;;;;12.00;11.00;;;;;;;;5077495;27;46512;-70
2022/02/26 06:19:54;;;;;;;;;12.50;10.50;;;;;;;;5043269;27;45416;-70
2022/02/26 06:22:19;;;;;;;;;9.75;9.75;;;;;;;;5078887;27;45329;-70
2022/02/26 06:24:44;;;;;;;;;13.25;12.00;;;;;;;;5077523;28;45384;-70
2022/02/26 06:27:10;;;;;;;;;12.25;10.50;;;;;;;;5082301;27;46548;-70
2022/02/26 06:29:35;;;;;;;;;14.50;12.00;;;;;;;;5088549;27;45435;-70
2022/02/26 06:32:00;;;;;;;;;13.50;12.00;;;;;;;;5078043;27;45792;-69
2022/02/26 06:34:27;;;;;;;;;11.50;11.00;;;;;;;;5062632;28;45550;-70
2022/02/26 06:36:52;;;;;;;;;12.75;12.75;;;;;;;;5065900;27;46652;-70
2022/02/26 06:39:17;;;;;;;;;17.25;13.00;;;;;;;;5071546;28;45458;-70
2022/02/26 06:41:42;;;;;;;;;13.75;10.75;;;;;;;;5077152;28;45537;-69
2022/02/26 06:44:08;;;;;;;;;11.00;11.00;;;;;;;;5077206;28;45516;-69
2022/02/26 06:46:37;;;;;;;;;12.00;12.00;;;;;;;;5077719;27;45391;-70
2022/02/26 06:49:03;;;;;;;;;12.00;11.25;;;;;;;;5077869;27;45284;-69
2022/02/26 06:51:30;;;;;;;;;11.50;10.50;;;;;;;;5069104;28;45557;-69
2022/02/26 06:53:55;;;;;;;;;11.50;10.25;;;;;;;;5068706;28;45315;-70
2022/02/26 06:56:20;;;;;;;;;11.00;10.25;;;;;;;;5079181;27;45915;-70
2022/02/26 06:58:46;;;;;;;;;11.75;11.75;;;;;;;;5078528;27;45617;-69
2022/02/26 07:01:11;;;;;;;;;10.75;10.75;;;;;;;;5078166;28;45367;-70
2022/02/26 07:03:36;;;;;;;;;7.00;7.00;;;;;;;;5077774;27;45510;-70
2022/02/26 07:06:02;;;;;;;;;13.50;12.00;;;;;;;;5077205;28;47060;-70
2022/02/26 07:08:27;;;;;;;;;13.25;13.25;;;;;;;;5077029;27;45552;-70
2022/02/26 07:10:53;;;;;;;;;13.00;11.50;;;;;;;;5077125;27;45466;-70
2022/02/26 07:13:18;;;;;;;;;13.25;11.50;;;;;;;;5078217;28;45356;-70
2022/02/26 07:15:44;;;;;;;;;12.00;10.00;;;;;;;;5085992;27;46079;-70
2022/02/26 07:18:10;;;;;;;;;8.50;8.50;;;;;;;;5082596;27;45547;-70
2022/02/26 07:20:35;;;;;;;;;15.00;11.25;;;;;;;;5076811;27;45390;-70
2022/02/26 07:23:00;;;;;;;;;11.50;11.50;;;;;;;;5077889;27;46727;-70
2022/02/26 07:25:25;;;;;;;;;12.00;11.25;;;;;;;;5076722;28;46490;-70
2022/02/26 07:27:51;;;;;;;;;10.25;10.00;;;;;;;;5076992;27;45557;-70
2022/02/26 07:30:16;;;;;;;;;11.00;10.50;;;;;;;;5076922;28;45424;-70
2022/02/26 07:32:41;;;;;;;;;11.50;11.50;;;;;;;;5083428;27;45279;-70
2022/02/26 07:35:06;;;;;;;;;11.75;11.75;;;;;;;;5076508;27;47304;-70
2022/02/26 07:37:32;;;;;;;;;15.00;11.50;;;;;;;;5084095;27;45470;-69
2022/02/26 07:39:57;;;;;;;;;11.75;10.00;;;;;;;;5076512;27;45433;-70
2022/02/26 07:42:23;;;;;;;;;15.00;11.00;;;;;;;;5076222;28;45730;-70
2022/02/26 07:44:48;;;;;;;;;12.00;10.50;;;;;;;;5076046;27;46128;-70
2022/02/26 07:47:13;;;;;;;;;11.50;9.00;;;;;;;;5076064;28;45545;-70
2022/02/26 07:49:38;;;;;;;;;11.75;11.75;;;;;;;;5075988;28;45451;-70
2022/02/26 07:52:04;;;;;;;;;10.00;9.00;;;;;;;;5077354;28;45493;-70
2022/02/26 07:54:29;;;;;;;;;13.75;11.00;;;;;;;;5075190;28;45943;-70
2022/02/26 07:56:54;;;;;;;;;14.25;11.75;;;;;;;;5075572;27;45464;-69
2022/02/26 07:59:19;;;;;;;;;14.75;12.00;;;;;;;;5076324;27;45363;-70
2022/02/26 08:01:45;;;;;;;;;12.00;10.00;;;;;;;;5076735;27;45378;-69
2022/02/26 08:04:11;;;;;;;;;14.75;12.00;;;;;;;;5060915;28;45498;-70
2022/02/26 08:06:36;;;;;;;;;13.25;13.00;;;;;;;;5080676;27;45426;-70
2022/02/26 08:09:01;;;;;;;;;12.00;9.00;;;;;;;;5067781;28;45435;-69
2022/02/26 08:11:30;;;;;;;;;17.25;12.00;;;;;;;;5076986;27;45441;-70
2022/02/26 08:13:56;;;;;;;;;9.75;9.75;;;;;;;;5076344;27;46304;-69
2022/02/26 08:16:23;;;;;;;;;12.00;11.50;;;;;;;;5076640;27;45606;-70
2022/02/26 08:18:48;;;;;;;;;11.00;9.75;;;;;;;;5075952;28;45446;-70
2022/02/26 08:21:13;;;;;;;;;10.75;9.25;;;;;;;;5075716;27;45541;-70
2022/02/26 08:23:38;;;;;;;;;11.75;11.50;;;;;;;;5074923;27;46365;-70
2022/02/26 08:26:05;;;;;;;;;12.25;11.25;;;;;;;;5077014;27;45565;-69
2022/02/26 08:28:30;;;;;;;;;11.50;10.25;;;;;;;;5077127;28;45516;-70
2022/02/26 08:30:56;;;;;;;;;11.75;11.00;;;;;;;;5075631;28;45554;-69
2022/02/26 08:33:21;;;;;;;;;11.25;9.50;;;;;;;;5080703;27;46590;-70
2022/02/26 08:35:46;;;;;;;;;10.75;10.25;;;;;;;;5060655;27;45364;-70
2022/02/26 08:38:11;;;;;;;;;12.75;12.00;;;;;;;;5061841;27;45410;-69
2022/02/26 08:40:37;;;;;;;;;11.00;9.50;;;;;;;;5075654;27;45402;-69
2022/02/26 08:43:02;;;;;;;;;13.50;11.75;;;;;;;;5076201;28;46665;-70
2022/02/26 08:45:27;;;;;;;;;13.25;12.25;;;;;;;;5075370;28;45391;-70
2022/02/26 08:47:53;;;;;;;;;12.00;11.00;;;;;;;;5075323;28;45308;-69
2022/02/26 08:50:21;;;;;;;;;11.00;11.00;;;;;;;;5075420;28;45437;-69
2022/02/26 08:52:46;;;;;;;;;11.00;10.25;;;;;;;;5075064;28;47485;-70
2022/02/26 08:55:11;;;;;;;;;13.75;12.25;;;;;;;;5075887;28;45611;-69
2022/02/26 08:57:37;;;;;;;;;12.50;9.75;;;;;;;;5075235;28;45445;-69
2022/02/26 09:00:04;;;;;;;;;12.50;10.75;;;;;;;;5074733;28;45481;-69
2022/02/26 09:02:29;;;;;;;;;11.00;10.25;;;;;;;;5074999;27;45458;-69
2022/02/26 09:04:54;;;;;;;;;9.50;6.75;;;;;;;;5075272;28;45546;-70
2022/02/26 09:07:19;;;;;;;;;11.00;10.25;;;;;;;;5081119;27;45451;-69
2022/02/26 09:09:45;;;;;;;;;12.00;10.00;;;;;;;;5077034;27;45478;-70
2022/02/26 09:12:10;;;;;;;;;13.25;12.50;;;;;;;;5078250;27;45461;-70
2022/02/26 09:14:35;;;;;;;;;12.75;11.50;;;;;;;;5086494;27;45451;-70
2022/02/26 09:17:01;;;;;;;;;13.75;9.75;;;;;;;;5074909;27;45314;-69
2022/02/26 09:19:26;;;;;;;;;12.75;10.75;;;;;;;;5076257;28;45486;-70
2022/02/26 09:21:51;;;;;;;;;9.25;9.00;;;;;;;;5069495;27;48093;-69
2022/02/26 09:24:16;;;;;;;;;12.00;9.50;;;;;;;;5056717;28;45453;-70
2022/02/26 09:26:41;;;;;;;;;10.25;9.25;;;;;;;;5075529;27;45378;-71
2022/02/26 09:29:07;;;;;;;;;12.25;10.00;;;;;;;;5074826;27;45304;-70
2022/02/26 09:31:32;;;;;;;;;15.25;12.50;;;;;;;;5082620;27;46378;-70
2022/02/26 09:33:57;;;;;;;;;12.00;11.75;;;;;;;;5074652;28;45423;-69
2022/02/26 09:36:23;;;;;;;;;11.00;11.00;;;;;;;;5073908;28;45507;-70
2022/02/26 09:38:48;;;;;;;;;12.00;10.50;;;;;;;;5056516;28;45568;-70
2022/02/26 09:41:13;;;;;;;;;12.25;12.25;;;;;;;;5073706;28;45620;-70
2022/02/26 09:43:39;;;;;;;;;14.50;10.50;;;;;;;;5074318;28;45349;-70
2022/02/26 09:46:04;;;;;;;;;15.25;10.25;;;;;;;;5075453;28;45217;-69
2022/02/26 09:48:30;;;;;;;;;12.75;10.00;;;;;;;;5073991;27;45542;-70
2022/02/26 09:50:57;;;;;;;;;10.50;9.00;;;;;;;;5074498;27;46316;-70
2022/02/26 09:53:23;;;;;;;;;11.50;10.25;;;;;;;;5074920;28;45455;-70
2022/02/26 09:55:50;;;;;;;;;12.00;12.00;;;;;;;;5074629;28;45616;-70
2022/02/26 09:58:15;;;;;;;;;17.00;13.00;;;;;;;;5075095;28;45468;-70
2022/02/26 10:00:44;;;;;;;;;9.75;9.75;;;;;;;;5074157;28;46620;-70
2022/02/26 10:03:25;;;;;;;;;13.25;10.75;;;;;;;;5074388;28;45428;-70
2022/02/26 10:06:11;;;;;;;;;13.00;12.00;;;;;;;;5073833;27;45386;-70
2022/02/26 10:08:37;;;;;;;;;13.75;10.00;;;;;;;;5073902;27;45525;-70
2022/02/26 10:11:02;;;;;;;;;13.75;13.50;;;;;;;;5073899;28;47114;-70
2022/02/26 10:13:27;;;;;;;;;12.00;10.75;;;;;;;;5075389;28;45332;-70
2022/02/26 10:15:52;;;;;;;;;10.00;10.00;;;;;;;;5075266;27;45532;-70
2022/02/26 10:18:18;;;;;;;;;10.25;9.25;;;;;;;;5074108;28;45377;-70
2022/02/26 10:20:54;;;;;;;;;14.50;11.00;;;;;;;;5073134;28;46321;-71
2022/02/26 10:23:21;;;;;;;;;10.00;9.25;;;;;;;;5073769;28;45426;-71
2022/02/26 10:25:46;;;;;;;;;15.00;11.25;;;;;;;;5074256;27;45299;-69
2022/02/26 10:28:12;;;;;;;;;13.00;10.25;;;;;;;;5074968;28;45274;-70
2022/02/26 10:30:40;;;;;;;;;10.00;10.00;;;;;;;;5073092;27;45542;-70
2022/02/26 10:33:05;;;;;;;;;10.50;9.50;;;;;;;;5075306;27;45574;-70
2022/02/26 10:35:50;;;;;;;;;10.25;9.00;;;;;;;;5073685;27;46234;-70
2022/02/26 10:38:20;;;;;;;;;10.00;10.00;;;;;;;;5060835;27;45474;-70
2022/02/26 10:40:48;;;;;;;;;13.00;12.50;;;;;;;;5073998;28;47365;-70
2022/02/26 10:43:13;;;;;;;;;10.75;10.25;;;;;;;;5072882;27;45537;-70
2022/02/26 10:45:39;;;;;;;;;13.50;10.00;;;;;;;;5073652;27;45409;-70
2022/02/26 10:48:04;;;;;;;;;9.25;9.25;;;;;;;;5066859;27;45552;-70
2022/02/26 10:50:34;;;;;;;;;11.25;9.50;;;;;;;;5073240;28;45514;-69
2022/02/26 10:53:03;;;;;;;;;13.25;10.00;;;;;;;;5073584;27;45239;-69
2022/02/26 10:56:03;;;;;;;;;11.75;10.00;;;;;;;;5070275;27;45427;-70
2022/02/26 10:58:28;;;;;;;;;12.00;10.00;;;;;;;;5007551;28;45626;-69
2022/02/26 11:01:03;;;;;;;;;10.50;10.25;;;;;;;;5013197;28;47282;-70
2022/02/26 11:03:29;;;;;;;;;10.75;10.25;;;;;;;;5015043;28;45471;-71
2022/02/26 11:05:55;;;;;;;;;9.25;8.25;;;;;;;;5009837;28;45343;-70
2022/02/26 11:08:21;;;;;;;;;9.25;9.25;;;;;;;;5013647;28;45560;-70
2022/02/26 11:10:47;;;;;;;;;10.00;9.25;;;;;;;;5014703;28;45691;-70
2022/02/26 11:13:13;;;;;;;;;10.75;10.75;;;;;;;;5015017;28;45518;-70
2022/02/26 11:15:38;;;;;;;;;10.00;9.00;;;;;;;;5014723;28;45397;-69
2022/02/26 11:18:04;;;;;;;;;11.50;11.50;;;;;;;;5017888;28;45357;-70
2022/02/26 11:20:30;;;;;;;;;10.75;9.25;;;;;;;;5014657;28;46181;-70
2022/02/26 11:22:56;;;;;;;;;8.00;8.00;;;;;;;;5014705;28;45361;-70
2022/02/26 11:25:22;;;;;;;;;13.75;10.75;;;;;;;;5017329;28;45570;-70
2022/02/26 11:27:48;;;;;;;;;10.25;8.50;;;;;;;;5010958;28;45522;-70
2022/02/26 11:30:15;;;;;;;;;14.75;8.75;;;;;;;;5009725;28;45471;-70
2022/02/26 11:32:42;;;;;;;;;9.75;8.25;;;;;;;;5011232;28;45702;-70
2022/02/26 11:35:15;;;;;;;;;8.25;7.00;;;;;;;;5073703;28;45453;-70
2022/02/26 11:37:40;;;;;;;;;9.75;9.75;;;;;;;;5076097;27;45284;-70
2022/02/26 11:40:10;;;;;;;;;10.50;10.00;;;;;;;;5076996;28;46163;-70
2022/02/26 11:42:38;;;;;;;;;11.50;11.50;;;;;;;;5076084;27;45410;-70
2022/02/26 11:45:05;;;;;;;;;10.00;10.00;;;;;;;;5076263;27;45351;-70
2022/02/26 11:47:32;;;;;;;;;11.00;9.00;;;;;;;;5075527;28;45542;-70
2022/02/26 11:49:58;;;;;;;;;7.50;6.00;;;;;;;;5077104;27;46256;-70
2022/02/26 11:52:36;;;;;;;;;9.00;9.00;;;;;;;;5077424;28;45439;-70
2022/02/26 11:55:02;;;;;;;;;8.75;8.75;;;;;;;;5088095;27;45257;-70
2022/02/26 11:57:29;;;;;;;;;9.00;9.00;;;;;;;;5080347;27;45415;-70
2022/02/26 12:00:08;;;;;;;;;9.00;9.00;;;;;;;;5075857;27;45347;-70
2022/02/26 12:02:33;;;;;;;;;9.50;8.25;;;;;;;;5076088;27;46947;-70
2022/02/26 12:04:59;;;;;;;;;10.50;8.00;;;;;;;;5076129;27;45368;-70
2022/02/26 12:07:41;;;;;;;;;8.75;8.75;;;;;;;;5091819;27;45605;-70
2022/02/26 12:10:08;;;;;;;;;10.50;9.25;;;;;;;;5075830;28;46504;-70
2022/02/26 12:12:38;;;;;;;;;8.00;7.75;;;;;;;;5072562;28;45521;-70
2022/02/26 12:15:05;;;;;;;;;8.75;7.75;;;;;;;;5076937;27;45490;-70
2022/02/26 12:17:30;;;;;;;;;9.25;8.00;;;;;;;;5075992;27;45376;-70
2022/02/26 12:19:55;;;;;;;;;9.00;7.75;;;;;;;;5077911;27;47261;-70
2022/02/26 12:22:33;;;;;;;;;7.75;7.00;;;;;;;;5076716;27;45303;-70
2022/02/26 12:25:09;;;;;;;;;9.50;8.50;;;;;;;;5075834;28;45408;-70
2022/02/26 12:27:34;;;;;;;;;7.00;7.00;;;;;;;;5056992;28;46052;-70
2022/02/26 12:30:13;;;;;;;;;9.00;8.00;;;;;;;;5074418;27;46261;-70
2022/02/26 12:33:11;;;;;;;;;7.50;6.00;;;;;;;;5075756;28;45387;-70
2022/02/26 12:35:36;;;;;;;;;7.00;7.00;;;;;;;;5012153;28;45405;-70
2022/02/26 12:38:03;;;;;;;;;9.25;7.25;;;;;;;;5013067;28;45377;-70
2022/02/26 12:40:30;;;;;;;;;11.00;6.75;;;;;;;;5013961;28;45706;-70
2022/02/26 12:43:01;;;;;;;;;9.75;7.50;;;;;;;;5011927;28;45455;-70
2022/02/26 12:45:36;;;;;;;;;7.00;6.00;;;;;;;;5012871;28;45632;-70
2022/02/26 12:48:01;;;;;;;;;9.50;7.00;;;;;;;;5013156;28;45291;-70
2022/02/26 12:50:28;;;;;;;;;10.00;7.00;;;;;;;;5011771;28;45648;-70
2022/02/26 12:52:58;;;;;;;;;9.25;7.25;;;;;;;;5013387;28;45412;-70
2022/02/26 12:55:23;;;;;;;;;7.25;5.00;;;;;;;;5013800;28;45413;-70
2022/02/26 12:57:48;;;;;;;;;6.25;6.25;;;;;;;;5013124;28;45434;-70
2022/02/26 13:00:22;;;;;;;;;9.25;7.75;;;;;;;;5012063;28;47472;-70
2022/02/26 13:02:51;;;;;;;;;6.00;5.75;;;;;;;;5013797;28;45646;-70
2022/02/26 13:05:17;;;;;;;;;7.75;6.00;;;;;;;;5012842;28;45579;-70
2022/02/26 13:07:42;;;;;;;;;8.00;7.00;;;;;;;;5013090;28;45458;-70
2022/02/26 13:10:07;;;;;;;;;6.00;5.75;;;;;;;;5015794;28;45473;-69
2022/02/26 13:12:33;;;;;;;;;6.00;6.00;;;;;;;;5071436;27;45273;-70
2022/02/26 13:15:01;;;;;;;;;6.00;5.00;;;;;;;;5074702;28;45363;-70
2022/02/26 13:17:31;;;;;;;;;7.75;6.00;;;;;;;;5075226;28;45427;-70
2022/02/26 13:19:56;;;;;;;;;6.25;6.25;;;;;;;;5090448;27;45396;-70
2022/02/26 13:22:22;;;;;;;;;5.00;4.25;;;;;;;;5053503;27;45627;-70
2022/02/26 13:24:48;;;;;;;;;5.50;5.50;;;;;;;;5075775;27;45444;-70
2022/02/26 13:27:14;;;;;;;;;7.00;5.25;;;;;;;;5074272;27;45510;-70
2022/02/26 13:29:41;;;;;;;;;6.75;6.75;;;;;;;;5073787;28;47115;-70
2022/02/26 13:32:12;;;;;;;;;5.75;5.75;;;;;;;;5074905;27;45403;-70
2022/02/26 13:34:41;;;;;;;;;4.25;4.25;;;;;;;;5074972;27;45450;-70
2022/02/26 13:37:07;;;;;;;;;6.00;6.00;;;;;;;;5074354;28;45488;-70
2022/02/26 13:39:32;;;;;;;;;5.75;5.75;;;;;;;;5074890;28;47004;-70
2022/02/26 13:41:58;;;;;;;;;6.25;5.25;;;;;;;;5077200;27;45396;-68
2022/02/26 13:44:31;;;;;;;;;3.50;2.00;;;;;;;;5087973;27;45773;-70
2022/02/26 13:46:57;;;;;;;;;7.00;6.00;;;;;;;;5074500;28;45446;-70
2022/02/26 13:49:22;;;;;;;;;4.50;4.50;;;;;;;;5075358;28;45351;-70
2022/02/26 13:51:47;;;;;;;;;5.75;4.50;;;;;;;;5081710;27;45592;-70
2022/02/26 13:54:15;;;;;;;;;5.00;5.00;;;;;;;;5083104;27;45421;-71
2022/02/26 13:56:41;;;;;;;;;6.75;5.00;;;;;;;;5073540;28;45395;-71
2022/02/26 13:59:08;;;;;;;;;4.75;4.75;;;;;;;;5058579;28;46226;-70
2022/02/26 14:01:49;;;;;;;;;6.25;5.00;;;;;;;;5074844;28;45395;-70
2022/02/26 14:04:18;;;;;;;;;5.25;3.25;;;;;;;;5059542;28;45384;-70
2022/02/26 14:06:46;;;;;;;;;5.00;5.00;;;;;;;;5072273;27;45434;-70
2022/02/26 14:09:17;;;;;;;;;5.25;5.25;;;;;;;;5073893;28;46236;-70
2022/02/26 14:11:43;;;;;;;;;3.00;3.00;;;;;;;;5073732;27;45531;-70
2022/02/26 14:14:27;;;;;;;;;5.50;5.50;;;;;;;;5075631;27;45613;-70
2022/02/26 14:17:03;;;;;;;;;4.00;4.00;;;;;;;;5074351;28;45336;-70
2022/02/26 14:19:32;;;;;;;;;5.25;4.25;;;;;;;;5075157;27;46479;-70
2022/02/26 14:21:58;;;;;;;;;3.50;2.50;;;;;;;;5073960;28;45269;-69
2022/02/26 14:24:27;;;;;;;;;6.00;4.00;;;;;;;;5074221;28;45254;-69